Time;durP1;ratioP1;P1;durP2;ratioP2;P2;SDS_P1;SDS_P2;PMS_P1;PMS_P2;Temp;Humidity;BMP_temperature;BMP_pressure;BME280_temperature;BME280_humidity;BME280_pressure;Samples;Min_cycle;Max_cycle;Signal;HPM_P1;HPM_P2
2022/01/04 00:01:47;;;;;;;2.13;1.90;;;8.80;86.40;;;7.41;86.57;96986.63;5087374;28;20550;-73
2022/01/04 00:04:14;;;;;;;3.03;1.90;;;8.80;87.30;;;7.37;86.60;96980.88;5090130;28;20488;-74
2022/01/04 00:06:41;;;;;;;3.17;2.10;;;8.70;87.70;;;7.50;86.91;96996.03;5086292;28;21175;-74
2022/01/04 00:09:10;;;;;;;5.57;2.10;;;8.70;88.20;;;7.44;87.87;96987.03;5071168;28;20825;-74
2022/01/04 00:11:58;;;;;;;3.20;2.53;;;8.70;89.20;;;7.51;88.01;96981.59;5101637;27;20464;-75
2022/01/04 00:14:25;;;;;;;2.30;1.60;;;8.70;90.10;;;7.56;87.94;96965.63;5085498;28;20541;-75
2022/01/04 00:16:55;;;;;;;4.57;2.30;;;8.70;90.30;;;7.40;88.64;96963.50;5070405;28;20460;-73
2022/01/04 00:19:23;;;;;;;2.10;1.73;;;8.60;90.60;;;7.43;89.11;96952.28;5066642;28;20451;-73
2022/01/04 00:21:50;;;;;;;3.93;2.00;;;8.60;90.90;;;7.22;90.06;96938.22;5084776;28;20467;-74
2022/01/04 00:24:18;;;;;;;3.23;1.73;;;8.60;91.10;;;7.30;89.63;96940.63;5084753;28;20513;-73
2022/01/04 00:26:45;;;;;;;3.73;1.80;;;8.60;91.50;;;7.31;90.02;96934.22;5082844;28;20480;-74
2022/01/04 00:29:12;;;;;;;2.00;1.50;;;8.60;92.10;;;7.27;90.77;96930.31;5082939;28;20545;-73
2022/01/04 00:31:39;;;;;;;2.03;1.40;;;8.50;92.10;;;7.17;91.65;96930.00;5069891;28;20467;-74
2022/01/04 00:34:06;;;;;;;2.40;2.20;;;8.50;93.00;;;7.15;91.95;96926.72;5085682;28;20464;-73
2022/01/04 00:36:33;;;;;;;4.10;1.37;;;8.50;93.30;;;6.99;92.37;96904.75;5085804;28;20458;-74
2022/01/04 00:39:00;;;;;;;2.77;1.63;;;8.40;93.70;;;7.08;92.62;96913.34;5082687;28;20472;-73
2022/01/04 00:41:28;;;;;;;2.57;1.50;;;8.40;94.10;;;7.04;92.80;96902.19;5084893;28;20450;-73
2022/01/04 00:43:55;;;;;;;2.70;1.60;;;8.30;94.20;;;7.05;93.43;96908.41;5084432;28;20474;-73
2022/01/04 00:46:22;;;;;;;2.37;1.70;;;8.40;94.90;;;7.03;93.47;96895.19;5078345;28;20532;-73
2022/01/04 00:51:35;;;;;;;2.40;2.20;;;8.30;95.00;;;6.98;94.26;96881.59;5083894;28;20512;-72
2022/01/04 00:54:02;;;;;;;2.27;1.80;;;8.30;96.00;;;6.94;94.20;96881.22;5083539;28;20449;-73
2022/01/04 00:56:30;;;;;;;4.03;1.60;;;8.20;95.50;;;7.00;93.99;96868.78;5085364;28;20484;-72
2022/01/04 00:58:57;;;;;;;2.57;1.90;;;8.20;95.60;;;6.77;93.82;96845.22;5087994;28;21046;-73
2022/01/04 01:01:25;;;;;;;2.50;1.87;;;8.20;95.10;;;6.87;93.92;96860.84;5082683;28;20475;-72
2022/01/04 01:03:52;;;;;;;2.30;1.80;;;8.20;95.60;;;6.98;93.72;96864.69;5078951;28;20484;-74
2022/01/04 01:06:20;;;;;;;3.73;2.17;;;8.20;95.90;;;6.88;93.71;96857.09;5070410;28;20485;-70
2022/01/04 01:08:47;;;;;;;2.33;1.50;;;8.10;95.30;;;6.86;94.14;96856.50;5093180;28;20461;-73
2022/01/04 01:11:15;;;;;;;3.43;2.10;;;8.10;95.60;;;6.72;94.75;96848.56;5093361;28;20457;-73
2022/01/04 01:13:44;;;;;;;3.77;2.00;;;8.10;95.80;;;6.70;94.66;96837.22;5089337;28;20482;-73
2022/01/04 01:16:11;;;;;;;3.10;2.10;;;8.00;96.20;;;6.69;94.78;96832.91;5083282;28;20491;-71
2022/01/04 01:18:39;;;;;;;5.07;2.00;;;8.00;96.60;;;6.69;95.14;96843.66;5083463;28;20495;-73
2022/01/04 01:21:07;;;;;;;6.20;2.27;;;8.00;96.60;;;6.72;94.47;96829.78;5067744;28;20548;-71
2022/01/04 01:23:35;;;;;;;4.27;2.40;;;8.00;95.90;;;6.67;94.62;96821.56;5082448;28;20535;-70
2022/01/04 01:26:02;;;;;;;2.73;1.40;;;8.00;95.90;;;6.62;94.61;96822.22;5066427;28;21051;-73
2022/01/04 01:28:30;;;;;;;2.37;1.83;;;8.00;96.10;;;6.54;95.22;96816.31;5084498;28;20483;-73
2022/01/04 01:30:58;;;;;;;3.40;2.23;;;8.00;96.40;;;6.58;95.44;96812.13;5083702;28;20888;-73
2022/01/04 01:33:27;;;;;;;4.10;2.27;;;7.90;96.80;;;6.66;95.62;96810.00;5085841;28;20894;-73
2022/01/04 01:35:55;;;;;;;4.83;2.60;;;8.00;97.40;;;6.67;94.73;96802.78;5082640;28;20504;-73
2022/01/04 01:38:22;;;;;;;4.77;2.33;;;8.00;96.50;;;6.59;95.12;96808.41;5083227;28;20482;-73
2022/01/04 01:40:51;;;;;;;3.43;2.00;;;7.90;96.30;;;6.63;94.83;96804.28;5083277;28;20456;-73
2022/01/04 01:43:18;;;;;;;3.97;1.90;;;8.00;96.80;;;6.65;94.98;96803.00;5085014;28;20468;-74
2022/01/04 01:45:47;;;;;;;6.40;2.27;;;8.00;96.50;;;6.61;95.36;96804.47;5065274;28;20464;-73
2022/01/04 01:48:15;;;;;;;5.50;2.10;;;7.90;96.50;;;6.70;94.99;96782.75;5063399;28;20660;-74
2022/01/04 01:50:42;;;;;;;3.67;2.27;;;8.00;96.30;;;6.63;95.47;96788.16;5088992;28;20474;-72
2022/01/04 01:53:09;;;;;;;3.13;1.90;;;7.90;97.10;;;6.74;95.22;96779.38;5084626;28;20908;-72
2022/01/04 01:55:36;;;;;;;4.20;2.20;;;8.00;97.50;;;6.73;94.89;96768.88;5068291;28;20937;-73
2022/01/04 01:58:05;;;;;;;2.87;2.17;;;8.00;96.70;;;6.58;95.13;96763.84;5065862;28;20483;-71
2022/01/04 02:00:32;;;;;;;7.13;2.40;;;8.00;96.40;;;6.70;95.10;96761.25;5085260;28;20476;-73
2022/01/04 02:03:02;;;;;;;2.20;2.00;;;8.00;96.80;;;6.64;95.44;96765.66;5102604;28;20460;-72
2022/01/04 02:05:31;;;;;;;6.10;2.13;;;8.00;97.30;;;6.68;95.61;96756.09;5066308;28;20550;-73
2022/01/04 02:08:00;;;;;;;2.40;2.20;;;8.00;96.90;;;6.78;95.11;96753.75;5085978;28;20548;-72
2022/01/04 02:10:27;;;;;;;2.50;2.20;;;8.00;97.50;;;6.72;95.24;96749.25;5096817;28;20465;-73
2022/01/04 02:12:54;;;;;;;8.03;2.87;;;8.00;96.80;;;6.84;95.12;96748.53;5063941;28;22062;-72
2022/01/04 02:15:24;;;;;;;3.30;1.93;;;8.10;96.90;;;6.71;95.38;96728.81;5065387;28;20842;-73
2022/01/04 02:17:52;;;;;;;3.67;2.80;;;8.00;96.90;;;6.68;95.63;96721.22;5082995;28;20578;-72
2022/01/04 02:20:21;;;;;;;2.87;2.20;;;8.10;96.90;;;6.77;95.86;96727.94;5083268;28;20464;-72
2022/01/04 02:22:49;;;;;;;3.03;2.40;;;8.10;97.50;;;6.84;95.52;96724.34;5072023;28;20450;-73
2022/01/04 02:25:17;;;;;;;3.43;2.30;;;8.10;97.20;;;6.44;95.23;96661.19;5085043;28;20464;-72
2022/01/04 02:27:44;;;;;;;3.00;2.20;;;8.10;96.90;;;6.79;95.54;96707.06;5079544;28;20446;-73
2022/01/04 02:30:15;;;;;;;5.30;2.70;;;8.10;96.90;;;6.78;95.73;96697.38;5084918;28;20474;-73
2022/01/04 02:32:43;;;;;;;9.70;2.50;;;8.10;97.20;;;6.84;95.50;96692.13;5082947;28;20496;-73
2022/01/04 02:35:11;;;;;;;4.40;2.30;;;8.20;97.60;;;6.88;95.68;96699.53;5084128;28;20552;-73
2022/01/04 02:37:40;;;;;;;8.03;2.40;;;8.20;97.50;;;6.95;95.41;96694.09;5097439;28;21069;-73
2022/01/04 02:40:08;;;;;;;4.30;2.10;;;8.20;97.40;;;6.92;95.32;96683.78;5066886;28;20987;-73
2022/01/04 02:42:35;;;;;;;2.43;2.23;;;8.20;96.90;;;6.89;95.58;96677.00;5083501;28;20452;-72
2022/01/04 02:45:02;;;;;;;2.80;2.23;;;8.20;97.10;;;6.87;95.60;96675.56;5063165;28;20551;-73
2022/01/04 02:47:29;;;;;;;3.20;1.93;;;8.20;97.20;;;6.94;95.73;96676.34;5083515;28;20460;-72
2022/01/04 02:49:56;;;;;;;4.40;2.70;;;8.20;97.80;;;6.96;95.35;96660.81;5080250;28;20539;-73
2022/01/04 02:52:24;;;;;;;2.90;2.30;;;8.20;98.10;;;6.98;96.15;96653.34;5064837;28;20453;-72
2022/01/04 02:54:53;;;;;;;3.53;2.30;;;8.30;98.50;;;6.98;95.71;96656.03;5082693;28;20544;-73
2022/01/04 02:57:20;;;;;;;2.60;2.30;;;8.30;98.60;;;7.07;95.75;96643.94;5063436;28;20456;-73
2022/01/04 02:59:47;;;;;;;3.53;2.10;;;8.30;98.20;;;7.11;95.89;96651.53;5080642;28;20471;-73
2022/01/04 03:02:14;;;;;;;3.83;2.23;;;8.40;97.90;;;7.04;96.10;96655.13;5069618;28;20456;-74
2022/01/04 03:04:41;;;;;;;7.77;2.40;;;8.40;97.90;;;7.18;95.56;96657.63;5102583;28;20472;-74
2022/01/04 03:07:08;;;;;;;4.07;1.80;;;8.50;97.50;;;7.17;95.82;96653.31;5106463;28;20482;-73
2022/01/04 03:09:35;;;;;;;3.07;2.27;;;8.40;98.20;;;7.22;95.59;96640.84;5096911;28;20555;-73
2022/01/04 03:12:04;;;;;;;2.27;2.00;;;8.50;97.40;;;7.26;95.28;96632.31;5093236;28;20542;-73
2022/01/04 03:14:31;;;;;;;4.07;2.00;;;8.50;97.30;;;7.22;95.41;96622.03;5085804;28;20460;-73
2022/01/04 03:16:58;;;;;;;1.73;1.50;;;8.50;97.10;;;7.26;95.67;96619.72;5081042;28;20572;-72
2022/01/04 03:19:25;;;;;;;2.33;1.73;;;8.50;97.90;;;7.27;95.21;96618.66;5072632;28;20474;-73
2022/01/04 03:21:52;;;;;;;2.60;2.40;;;8.50;96.60;;;7.26;95.60;96606.28;5087688;28;20464;-73
2022/01/04 03:24:19;;;;;;;2.43;1.93;;;8.50;97.40;;;7.26;95.15;96590.16;5093271;28;20451;-73
2022/01/04 03:26:46;;;;;;;4.87;2.10;;;8.60;97.00;;;7.32;95.36;96605.34;5082496;28;20895;-73
2022/01/04 03:29:16;;;;;;;2.70;2.10;;;8.60;96.90;;;7.32;95.25;96597.28;5083090;28;20551;-73
2022/01/04 03:31:44;;;;;;;3.47;1.93;;;8.60;96.80;;;7.32;95.59;96589.22;5086788;28;20969;-73
2022/01/04 03:34:13;;;;;;;3.13;1.50;;;8.60;97.80;;;7.45;94.85;96584.72;5087662;28;20944;-72
2022/01/04 03:36:41;;;;;;;3.20;2.47;;;8.70;97.00;;;7.31;95.42;96563.41;5085406;28;20874;-73
2022/01/04 03:39:11;;;;;;;3.13;2.00;;;8.60;97.00;;;7.27;95.02;96543.44;5089616;28;21305;-72
2022/01/04 03:41:41;;;;;;;2.20;2.00;;;8.70;96.50;;;7.46;95.40;96564.84;5087747;28;20518;-72
2022/01/04 03:44:14;;;;;;;1.97;1.77;;;8.70;96.60;;;7.50;94.78;96555.28;5085955;28;20551;-72
2022/01/04 03:46:42;;;;;;;2.50;1.80;;;8.80;96.30;;;7.45;95.04;96557.84;5087558;28;20873;-72
2022/01/04 03:49:09;;;;;;;2.50;2.27;;;8.70;96.30;;;7.41;95.61;96551.31;5087508;28;20466;-73
2022/01/04 03:51:37;;;;;;;3.03;1.57;;;8.70;96.80;;;7.51;95.32;96552.38;5086470;28;20552;-73
2022/01/04 03:54:04;;;;;;;2.20;1.80;;;8.70;97.30;;;7.51;95.38;96546.19;5073251;28;20909;-73
2022/01/04 03:56:31;;;;;;;2.37;1.87;;;8.80;97.20;;;7.51;95.43;96540.81;5070120;28;20455;-74
2022/01/04 03:58:59;;;;;;;2.10;1.90;;;8.80;97.60;;;7.50;95.74;96533.78;5085709;28;20512;-73
2022/01/04 04:01:25;;;;;;;3.50;1.57;;;8.80;98.00;;;7.25;95.90;96489.13;5069444;28;20450;-72
2022/01/04 04:03:55;;;;;;;4.10;1.47;;;8.80;97.70;;;7.53;95.57;96517.22;5075187;28;20440;-72
2022/01/04 04:06:22;;;;;;;1.83;1.63;;;8.80;97.70;;;7.52;96.02;96504.81;5093356;28;20567;-73
2022/01/04 04:08:49;;;;;;;1.63;1.53;;;8.80;97.30;;;7.54;95.79;96504.56;5084456;28;20988;-73
2022/01/04 04:11:16;;;;;;;1.67;1.57;;;8.80;97.60;;;7.61;95.66;96514.16;5083151;28;21013;-73
2022/01/04 04:13:43;;;;;;;3.10;1.90;;;8.90;97.60;;;7.67;95.73;96516.97;5085912;28;20568;-73
2022/01/04 04:16:11;;;;;;;4.47;2.13;;;8.90;97.30;;;7.55;96.39;96509.72;5087029;28;20484;-73
2022/01/04 04:18:38;;;;;;;2.93;2.30;;;8.90;98.70;;;7.65;96.38;96509.94;5083966;28;20464;-73
2022/01/04 04:21:06;;;;;;;1.50;1.40;;;8.90;98.60;;;7.63;96.31;96498.59;5066114;28;20504;-73
2022/01/04 04:23:33;;;;;;;3.20;2.27;;;8.90;98.90;;;7.65;95.66;96498.38;5087047;28;20991;-74
2022/01/04 04:26:00;;;;;;;4.57;2.13;;;8.90;98.50;;;7.70;95.92;96481.56;5089355;28;20466;-73
2022/01/04 04:28:27;;;;;;;3.50;2.03;;;8.90;98.40;;;7.72;96.03;96484.81;5084282;28;20450;-73
2022/01/04 04:30:56;;;;;;;3.40;1.60;;;8.90;98.50;;;7.64;96.46;96480.63;5078791;28;20472;-74
2022/01/04 04:33:23;;;;;;;2.67;1.87;;;8.90;98.90;;;7.62;96.68;96466.59;5088671;28;21814;-73
2022/01/04 04:35:50;;;;;;;3.07;2.00;;;8.90;99.10;;;7.72;96.61;96471.38;5083156;28;20553;-73
2022/01/04 04:38:18;;;;;;;2.30;2.10;;;8.90;99.70;;;7.64;97.28;96459.91;5086855;28;20558;-73
2022/01/04 04:40:45;;;;;;;5.07;2.17;;;8.90;99.90;;;7.52;97.71;96451.06;5082458;28;20468;-73
2022/01/04 04:43:13;;;;;;;2.57;2.37;;;8.80;99.90;;;7.65;97.06;96456.19;5101715;28;20548;-73
2022/01/04 04:45:39;;;;;;;1.77;1.67;;;8.90;99.90;;;7.61;97.50;96438.88;5080532;28;20455;-72
2022/01/04 04:48:06;;;;;;;2.03;1.87;;;8.90;99.90;;;7.62;97.55;96439.72;5082275;28;20465;-73
2022/01/04 04:50:34;;;;;;;4.73;2.30;;;8.90;99.90;;;7.61;98.08;96444.25;5077138;28;20495;-72
2022/01/04 04:53:01;;;;;;;4.10;2.10;;;8.90;99.90;;;7.53;97.58;96420.44;5082702;28;20973;-72
2022/01/04 04:55:30;;;;;;;3.40;2.40;;;8.90;99.90;;;7.61;97.86;96430.03;5085102;28;20536;-73
2022/01/04 04:57:57;;;;;;;2.40;1.90;;;8.90;99.90;;;7.63;97.89;96436.78;5080616;28;21020;-72
2022/01/04 05:00:24;;;;;;;4.17;2.23;;;8.90;99.90;;;7.63;98.23;96417.97;5081047;28;20484;-72
2022/01/04 05:02:51;;;;;;;2.30;2.10;;;8.90;99.90;;;7.56;98.54;96419.16;5081858;28;20547;-73
2022/01/04 05:05:18;;;;;;;2.30;2.10;;;8.90;99.90;;;7.62;98.68;96423.59;5086987;28;21145;-73
2022/01/04 05:07:45;;;;;;;6.57;2.47;;;8.80;99.90;;;7.58;99.23;96417.88;5085174;28;20886;-73
2022/01/04 05:10:12;;;;;;;3.27;2.37;;;8.80;99.90;;;7.62;98.52;96424.41;5086110;28;20575;-73
2022/01/04 05:12:41;;;;;;;2.83;2.40;;;8.80;99.90;;;7.60;98.24;96414.94;5085013;28;20489;-74
2022/01/04 05:15:09;;;;;;;4.10;2.67;;;8.90;99.90;;;7.56;98.81;96414.59;5083894;28;20463;-73
2022/01/04 05:17:36;;;;;;;2.47;2.27;;;8.80;99.90;;;7.57;99.18;96401.97;5081471;28;20490;-72
2022/01/04 05:20:05;;;;;;;2.50;2.20;;;8.80;99.90;;;7.48;99.19;96406.88;5087547;28;20990;-73
2022/01/04 05:22:32;;;;;;;2.87;2.20;;;8.80;99.90;;;7.61;98.79;96403.94;5063854;28;20460;-71
2022/01/04 05:24:59;;;;;;;2.27;2.07;;;8.80;99.90;;;7.35;99.10;96363.09;5084504;28;20464;-70
2022/01/04 05:27:26;;;;;;;3.40;2.53;;;8.80;99.90;;;7.54;99.83;96386.31;5069296;28;21100;-72
2022/01/04 05:29:54;;;;;;;3.80;2.80;;;8.80;99.90;;;7.53;99.51;96393.56;5083638;28;20537;-72
2022/01/04 05:32:21;;;;;;;4.77;2.90;;;8.80;99.90;;;7.50;99.69;96394.03;5082857;28;20456;-73
2022/01/04 05:34:48;;;;;;;3.93;2.93;;;8.80;99.90;;;7.51;99.63;96379.56;5085633;28;20466;-73
2022/01/04 05:37:15;;;;;;;3.73;2.40;;;8.80;99.90;;;7.46;100.00;96371.38;5085709;28;20547;-73
2022/01/04 05:39:42;;;;;;;3.30;3.00;;;8.80;99.90;;;7.48;100.00;96375.47;5086007;28;20477;-78
2022/01/04 05:42:10;;;;;;;3.60;3.17;;;8.80;99.90;;;7.40;100.00;96375.00;5080470;28;20457;-74
2022/01/04 05:44:37;;;;;;;3.13;2.83;;;8.70;99.90;;;7.52;100.00;96370.44;5085339;28;20576;-81
2022/01/04 05:47:07;;;;;;;3.57;2.60;;;8.70;99.90;;;7.53;100.00;96372.06;5068751;28;20450;-75
2022/01/04 05:49:34;;;;;;;4.20;3.03;;;8.80;99.90;;;7.46;99.90;96361.44;5100047;28;20461;-75
2022/01/04 05:52:04;;;;;;;3.63;2.90;;;8.70;99.90;;;7.52;100.00;96359.69;5063249;28;20509;-78
2022/01/04 05:54:31;;;;;;;3.90;3.50;;;8.80;99.90;;;7.41;100.00;96347.88;5098574;28;20472;-76
2022/01/04 05:56:58;;;;;;;3.77;3.47;;;8.70;99.90;;;7.41;99.92;96352.47;5083189;28;20456;-76
2022/01/04 05:59:25;;;;;;;4.83;2.90;;;8.70;99.90;;;7.40;100.00;96345.44;5081112;28;20556;-76
2022/01/04 06:01:52;;;;;;;3.47;3.00;;;8.70;99.90;;;7.36;100.00;96329.81;5085532;28;20453;-75
2022/01/04 06:04:20;;;;;;;3.60;2.67;;;8.70;99.90;;;7.44;99.82;96323.25;5100423;28;20474;-75
2022/01/04 06:06:47;;;;;;;3.07;2.77;;;8.70;99.90;;;7.40;99.01;96327.44;5093806;28;20544;-74
2022/01/04 06:09:21;;;;;;;3.37;2.93;;;8.70;99.90;;;7.32;99.53;96323.25;5086104;28;20464;-74
2022/01/04 06:12:01;;;;;;;3.00;2.73;;;8.60;99.90;;;7.22;99.85;96317.69;5071085;28;20482;-75
2022/01/04 06:17:14;;;;;;;2.67;2.40;;;8.50;99.90;;;7.23;100.00;96319.31;5080919;28;20461;-76
2022/01/04 06:19:42;;;;;;;4.60;2.70;;;8.50;99.90;;;7.22;99.84;96309.63;5087909;28;20567;-76
2022/01/04 06:22:09;;;;;;;3.80;2.90;;;8.50;99.90;;;7.15;100.00;96301.69;5089900;28;20456;-74
2022/01/04 06:24:37;;;;;;;2.80;2.60;;;8.50;99.90;;;7.10;100.00;96293.50;5082393;28;20460;-75
2022/01/04 06:27:08;;;;;;;3.93;2.93;;;8.40;99.90;;;7.23;99.76;96311.25;5062317;28;20469;-74
2022/01/04 06:29:35;;;;;;;3.07;2.80;;;8.50;99.90;;;6.61;100.00;96227.47;5078246;28;20459;-74
2022/01/04 06:32:03;;;;;;;3.70;3.00;;;8.40;99.90;;;7.20;100.00;96298.28;5082565;28;20539;-71
2022/01/04 06:34:30;;;;;;;2.70;2.50;;;8.40;99.90;;;7.25;99.64;96295.72;5086899;28;20484;-71
2022/01/04 06:36:58;;;;;;;4.63;2.93;;;8.50;99.90;;;7.22;99.81;96301.56;5087268;28;20555;-71
2022/01/04 06:39:26;;;;;;;3.53;3.17;;;8.50;99.90;;;7.18;100.00;96297.69;5079169;28;20990;-74
2022/01/04 06:41:53;;;;;;;3.63;3.13;;;8.50;99.90;;;7.06;100.00;96271.69;5085375;28;20457;-72
2022/01/04 06:44:20;;;;;;;3.73;2.80;;;8.40;99.90;;;7.18;100.00;96289.63;5084258;28;20456;-70
2022/01/04 06:46:47;;;;;;;5.20;3.30;;;8.40;99.90;;;7.21;100.00;96291.88;5101211;28;20461;-69
2022/01/04 06:49:14;;;;;;;3.60;3.30;;;8.50;99.90;;;7.15;100.00;96271.31;5105881;28;20511;-71
2022/01/04 06:51:43;;;;;;;5.50;3.20;;;8.40;99.90;;;7.16;100.00;96259.50;5118144;28;20488;-71
2022/01/04 06:54:14;;;;;;;2.70;2.50;;;8.40;99.90;;;7.15;100.00;96263.25;5104166;28;20453;-77
2022/01/04 06:56:42;;;;;;;4.70;3.23;;;8.40;99.90;;;7.05;100.00;96248.56;5088344;28;20451;-75
2022/01/04 06:59:09;;;;;;;3.50;2.90;;;8.40;99.90;;;7.16;100.00;96254.97;5100368;28;20468;-73
2022/01/04 07:01:37;;;;;;;3.37;2.80;;;8.40;99.90;;;7.16;100.00;96254.16;5081016;28;20472;-78
2022/01/04 07:04:06;;;;;;;3.27;2.97;;;8.40;99.90;;;7.07;100.00;96246.47;5089806;28;20521;-76
2022/01/04 07:06:33;;;;;;;5.13;3.23;;;8.40;99.90;;;7.08;100.00;96240.03;5088883;28;20471;-80
2022/01/04 07:09:03;;;;;;;4.27;3.20;;;8.40;99.90;;;7.07;100.00;96238.41;5088832;28;20998;-78
2022/01/04 07:11:32;;;;;;;3.40;3.10;;;8.30;99.90;;;7.09;100.00;96230.94;5082681;28;20525;-73
2022/01/04 07:13:59;;;;;;;6.17;2.93;;;8.40;99.90;;;7.01;100.00;96225.91;5078104;28;20469;-78
2022/01/04 07:16:26;;;;;;;4.20;3.10;;;8.30;99.90;;;7.06;100.00;96223.34;5084613;28;20940;-75
2022/01/04 07:18:53;;;;;;;4.43;3.10;;;8.30;99.90;;;7.03;100.00;96223.00;5073768;28;20453;-79
2022/01/04 07:21:21;;;;;;;3.77;3.43;;;8.30;99.90;;;7.06;100.00;96222.53;5069442;28;20460;-74
2022/01/04 07:23:49;;;;;;;3.57;3.27;;;8.30;99.90;;;6.72;100.00;96160.63;5093893;28;20493;-74
2022/01/04 07:26:17;;;;;;;6.80;3.53;;;8.30;99.90;;;7.16;100.00;96222.75;5089993;28;20525;-77
2022/01/04 07:28:47;;;;;;;3.33;3.03;;;8.40;99.90;;;7.06;100.00;96217.16;5088208;28;20448;-78
2022/01/04 07:31:17;;;;;;;3.50;3.20;;;8.40;99.90;;;7.02;100.00;96210.63;5088309;28;20562;-74
2022/01/04 07:33:45;;;;;;;4.17;3.20;;;8.30;99.90;;;7.04;100.00;96209.31;5094117;28;21137;-76
2022/01/04 07:36:13;;;;;;;6.20;3.20;;;8.30;99.90;;;7.05;100.00;96204.78;5087780;28;20470;-80
2022/01/04 07:38:40;;;;;;;5.03;2.53;;;8.30;99.90;;;7.05;100.00;96216.34;5090009;28;20547;-77
2022/01/04 07:41:07;;;;;;;3.30;3.00;;;8.30;99.90;;;7.19;100.00;96205.31;5098424;28;21010;-80
2022/01/04 07:43:35;;;;;;;3.43;3.13;;;8.40;99.90;;;7.21;100.00;96204.03;5085301;28;20553;-76
2022/01/04 07:46:03;;;;;;;4.97;3.40;;;8.50;99.90;;;7.20;100.00;96202.41;5090034;28;20464;-78
2022/01/04 07:48:30;;;;;;;3.67;3.23;;;8.50;99.90;;;7.31;100.00;96192.66;5089133;28;20460;-75
2022/01/04 07:50:59;;;;;;;4.27;3.43;;;8.50;99.90;;;7.27;99.73;96202.28;5068487;28;20471;-78
2022/01/04 07:53:26;;;;;;;4.53;2.90;;;8.50;99.90;;;7.12;100.00;96196.59;5086363;28;20526;-79
2022/01/04 07:55:54;;;;;;;3.67;3.37;;;8.50;99.90;;;7.12;100.00;96183.16;5086608;28;20555;-78
2022/01/04 07:58:22;;;;;;;4.40;2.63;;;8.50;99.90;;;7.26;100.00;96183.69;5089508;28;20578;-77
2022/01/04 08:00:49;;;;;;;3.57;2.80;;;8.50;99.90;;;7.26;100.00;96183.69;5069720;28;20468;-73
2022/01/04 08:03:17;;;;;;;2.90;2.60;;;8.50;99.90;;;7.39;99.71;96187.97;5080695;28;20485;-77
2022/01/04 08:05:45;;;;;;;4.80;3.03;;;8.60;99.90;;;7.43;99.30;96173.00;5084433;28;20492;-79
2022/01/04 08:08:12;;;;;;;5.93;2.70;;;8.70;99.90;;;7.41;100.00;96177.81;5090958;28;20856;-78
2022/01/04 08:10:39;;;;;;;3.60;3.30;;;8.60;99.90;;;7.43;99.58;96175.69;5082571;28;20467;-77
2022/01/04 08:13:06;;;;;;;2.97;2.67;;;8.70;99.90;;;7.41;99.68;96172.44;5086427;28;20496;-76
2022/01/04 08:15:33;;;;;;;4.27;2.80;;;8.70;99.90;;;7.37;99.96;96175.59;5085195;28;20568;-78
2022/01/04 08:18:00;;;;;;;3.77;2.90;;;8.70;99.90;;;7.47;99.72;96163.41;5070215;28;20559;-75
2022/01/04 08:20:29;;;;;;;4.40;2.90;;;8.70;99.90;;;7.49;99.89;96156.75;5076532;28;20478;-77
2022/01/04 08:22:57;;;;;;;3.43;3.13;;;8.70;99.90;;;7.62;99.59;96155.59;5071144;28;20600;-74
2022/01/04 08:25:24;;;;;;;3.20;2.83;;;8.80;99.90;;;7.51;99.10;96159.19;5084176;28;20468;-74
2022/01/04 08:27:52;;;;;;;4.40;2.90;;;8.80;99.90;;;7.36;100.00;96157.84;5081906;28;20456;-73
2022/01/04 08:30:19;;;;;;;4.27;2.83;;;8.70;99.90;;;7.44;100.00;96159.34;5086183;28;20476;-75
2022/01/04 08:32:47;;;;;;;4.30;2.63;;;8.70;99.90;;;7.54;99.79;96145.28;5074442;28;20455;-74
2022/01/04 08:35:14;;;;;;;5.17;2.63;;;8.80;99.90;;;7.54;99.76;96150.66;5073240;28;20982;-75
2022/01/04 08:37:43;;;;;;;3.70;3.20;;;8.80;99.90;;;7.51;100.00;96145.75;5081738;28;20453;-76
2022/01/04 08:40:10;;;;;;;3.50;2.97;;;8.80;99.90;;;7.52;100.00;96136.63;5082389;28;22264;-71
2022/01/04 08:42:38;;;;;;;5.53;3.40;;;8.80;99.90;;;7.56;100.00;96129.72;5065580;28;20495;-73
2022/01/04 08:45:08;;;;;;;4.03;3.50;;;8.80;99.90;;;7.55;99.53;96117.34;5090179;28;20471;-75
2022/01/04 08:47:35;;;;;;;3.60;3.30;;;8.90;99.90;;;7.69;100.00;96133.16;5097825;28;20535;-73
2022/01/04 08:50:04;;;;;;;3.80;3.40;;;8.90;99.90;;;7.64;100.00;96126.59;5085694;28;21125;-75
2022/01/04 08:52:31;;;;;;;3.77;3.40;;;8.90;99.90;;;7.55;100.00;96119.19;5086557;28;20533;-72
2022/01/04 08:54:59;;;;;;;3.43;3.10;;;8.90;99.90;;;7.70;100.00;96107.91;5070033;28;21034;-74
2022/01/04 08:57:26;;;;;;;3.37;3.07;;;8.90;99.90;;;7.63;100.00;96108.06;5084284;28;20455;-76
2022/01/04 08:59:54;;;;;;;6.70;3.60;;;8.90;99.90;;;7.77;99.56;96108.53;5073715;28;20547;-75
2022/01/04 09:02:23;;;;;;;3.30;3.00;;;9.00;99.90;;;7.65;99.98;96098.66;5088257;28;20468;-77
2022/01/04 09:04:50;;;;;;;3.20;2.90;;;8.90;99.90;;;7.84;99.90;96093.06;5094552;28;20837;-73
2022/01/04 09:07:17;;;;;;;5.93;3.80;;;9.00;99.90;;;7.85;99.53;96099.25;5087099;28;20551;-74
2022/01/04 09:09:45;;;;;;;5.43;3.50;;;9.10;99.90;;;8.05;99.74;96091.50;5081694;28;21241;-74
2022/01/04 09:12:14;;;;;;;3.43;3.13;;;9.20;99.90;;;7.88;99.56;96091.53;5084584;28;20629;-73
2022/01/04 09:14:54;;;;;;;4.20;3.20;;;9.20;99.90;;;7.98;99.31;96088.16;5081354;28;20479;-76
2022/01/04 09:20:10;;;;;;;6.73;3.20;;;9.20;99.90;;;7.95;100.00;96088.66;5087632;28;20477;-74
2022/01/04 09:22:38;;;;;;;4.87;3.07;;;9.20;99.90;;;7.90;100.00;96084.00;5081716;28;20484;-72
2022/01/04 09:25:07;;;;;;;3.37;2.80;;;9.20;99.90;;;8.09;99.60;96083.75;5079128;28;20499;-73
2022/01/04 09:27:36;;;;;;;3.70;3.10;;;9.30;99.90;;;8.19;99.55;96067.75;5084034;28;21004;-74
2022/01/04 09:30:05;;;;;;;3.13;2.90;;;9.30;99.90;;;8.25;99.85;96070.50;5072228;28;20563;-72
2022/01/04 09:32:35;;;;;;;3.70;3.30;;;9.40;99.90;;;8.21;99.48;96070.22;5086001;28;20467;-72
2022/01/04 09:35:04;;;;;;;4.43;3.87;;;9.40;99.90;;;8.38;99.25;96064.78;5087716;28;20460;-73
2022/01/04 09:37:31;;;;;;;5.17;4.67;;;9.50;99.90;;;8.33;99.42;96051.25;5084185;28;20487;-72
2022/01/04 09:39:58;;;;;;;4.17;3.03;;;9.50;99.90;;;8.39;99.58;96049.44;5069567;28;20474;-73
2022/01/04 09:42:25;;;;;;;2.70;2.50;;;9.50;99.90;;;8.43;98.78;96050.56;5087858;28;20455;-72
2022/01/04 09:44:53;;;;;;;2.50;2.30;;;9.60;99.90;;;8.14;98.70;96008.53;5079619;28;20559;-73
2022/01/04 09:47:20;;;;;;;2.80;2.30;;;9.70;99.90;;;8.43;99.34;96040.63;5085140;28;20710;-72
2022/01/04 09:49:48;;;;;;;4.93;4.40;;;9.60;99.90;;;8.52;98.23;96035.66;5085857;28;20464;-73
2022/01/04 09:52:19;;;;;;;4.30;3.17;;;9.70;99.90;;;8.75;98.04;96026.50;5092121;28;20457;-73
2022/01/04 09:54:48;;;;;;;2.80;2.60;;;9.90;99.90;;;8.76;97.36;96030.00;5088600;28;20488;-74
2022/01/04 09:57:16;;;;;;;3.60;2.83;;;10.00;99.90;;;8.66;97.33;96025.31;5082425;28;20487;-72
2022/01/04 09:59:43;;;;;;;3.60;3.30;;;9.90;99.90;;;8.81;97.71;96007.69;5093799;28;20487;-73
2022/01/04 10:02:18;;;;;;;2.90;2.60;;;10.00;99.90;;;9.05;96.58;96009.03;5086519;28;20550;-76
2022/01/04 10:04:46;;;;;;;3.13;2.70;;;10.20;99.40;;;8.91;97.40;95997.03;5085166;28;20448;-72
2022/01/04 10:07:13;;;;;;;3.07;2.70;;;10.10;98.70;;;8.73;98.01;95996.31;5067395;28;20509;-74
2022/01/04 10:09:44;;;;;;;12.20;10.93;;;10.00;99.10;;;8.78;97.99;95988.28;5090912;28;20987;-73
2022/01/04 10:12:13;;;;;;;7.70;3.67;;;10.00;99.90;;;8.86;97.63;95996.97;5087195;28;20471;-73
2022/01/04 10:14:43;;;;;;;3.93;3.00;;;10.10;99.90;;;8.76;98.13;95979.66;5077066;28;20485;-73
2022/01/04 10:17:13;;;;;;;2.97;2.60;;;10.00;99.90;;;8.72;98.03;95989.31;5067617;28;20457;-73
2022/01/04 10:19:45;;;;;;;3.60;3.23;;;10.00;99.90;;;8.86;98.26;95978.13;5091737;28;20994;-73
2022/01/04 10:22:23;;;;;;;3.30;3.00;;;10.00;99.90;;;8.85;98.69;95984.56;5085200;28;20534;-71
2022/01/04 10:25:10;;;;;;;4.03;2.47;;;10.00;99.90;;;8.84;98.48;95980.25;5109399;28;21247;-72
2022/01/04 10:27:41;;;;;;;3.33;2.80;;;10.10;99.90;;;8.88;98.21;95960.66;5097369;28;20460;-70
2022/01/04 10:30:20;;;;;;;3.03;2.73;;;10.10;99.90;;;8.89;99.28;95966.84;5071215;28;20513;-70
2022/01/04 10:32:51;;;;;;;3.00;2.67;;;10.10;99.90;;;8.93;98.53;95965.28;5090977;28;20448;-71
2022/01/04 10:35:27;;;;;;;4.87;2.83;;;10.20;99.90;;;8.88;99.31;95949.06;5092063;28;20979;-73
2022/01/04 10:37:56;;;;;;;4.83;3.10;;;10.10;99.90;;;8.99;99.10;95953.47;5087161;28;20597;-72
2022/01/04 10:40:26;;;;;;;3.80;2.93;;;10.20;99.90;;;9.05;98.70;95940.84;5088973;28;21960;-72
2022/01/04 10:42:54;;;;;;;3.00;2.70;;;10.30;99.90;;;9.25;98.73;95945.59;5088887;28;20460;-72